sensor_id;sensor_type;location;lat;lon;timestamp;P1;durP1;ratioP1;P2;durP2;ratioP2
23866;SDS011;12114;53.404;-1.502;2023-12-29T00:02:08;18.88;;;2.63;;
23866;SDS011;12114;53.404;-1.502;2023-12-29T00:04:52;15.15;;;3.08;;
23866;SDS011;12114;53.404;-1.502;2023-12-29T00:07:36;17.25;;;2.60;;
23866;SDS011;12114;53.404;-1.502;2023-12-29T00:10:20;15.88;;;2.70;;
23866;SDS011;12114;53.404;-1.502;2023-12-29T00:13:04;17.17;;;2.85;;
23866;SDS011;12114;53.404;-1.502;2023-12-29T00:15:51;22.58;;;3.83;;
23866;SDS011;12114;53.404;-1.502;2023-12-29T00:18:39;17.70;;;3.30;;
23866;SDS011;12114;53.404;-1.502;2023-12-29T00:21:23;18.10;;;2.75;;
23866;SDS011;12114;53.404;-1.502;2023-12-29T00:24:07;17.02;;;3.50;;
23866;SDS011;12114;53.404;-1.502;2023-12-29T00:26:51;16.23;;;2.90;;
23866;SDS011;12114;53.404;-1.502;2023-12-29T00:29:34;17.80;;;2.97;;
23866;SDS011;12114;53.404;-1.502;2023-12-29T00:32:18;17.90;;;2.67;;
23866;SDS011;12114;53.404;-1.502;2023-12-29T00:35:03;18.88;;;3.38;;
23866;SDS011;12114;53.404;-1.502;2023-12-29T00:37:47;16.58;;;2.50;;
23866;SDS011;12114;53.404;-1.502;2023-12-29T00:40:34;13.02;;;2.35;;
23866;SDS011;12114;53.404;-1.502;2023-12-29T00:43:18;15.30;;;2.70;;
23866;SDS011;12114;53.404;-1.502;2023-12-29T00:46:02;18.10;;;2.80;;
23866;SDS011;12114;53.404;-1.502;2023-12-29T00:48:47;12.40;;;2.57;;
23866;SDS011;12114;53.404;-1.502;2023-12-29T00:51:31;19.00;;;3.22;;
23866;SDS011;12114;53.404;-1.502;2023-12-29T00:54:15;18.48;;;2.35;;
23866;SDS011;12114;53.404;-1.502;2023-12-29T00:56:59;14.63;;;2.60;;
23866;SDS011;12114;53.404;-1.502;2023-12-29T00:59:46;15.00;;;2.92;;
23866;SDS011;12114;53.404;-1.502;2023-12-29T01:02:31;18.70;;;2.70;;
23866;SDS011;12114;53.404;-1.502;2023-12-29T01:05:15;18.20;;;2.88;;
23866;SDS011;12114;53.404;-1.502;2023-12-29T01:08:01;21.10;;;2.88;;
23866;SDS011;12114;53.404;-1.502;2023-12-29T01:10:47;16.42;;;2.80;;
23866;SDS011;12114;53.404;-1.502;2023-12-29T01:13:31;10.70;;;2.30;;
23866;SDS011;12114;53.404;-1.502;2023-12-29T01:16:15;13.63;;;2.10;;
23866;SDS011;12114;53.404;-1.502;2023-12-29T01:18:59;13.00;;;2.72;;
23866;SDS011;12114;53.404;-1.502;2023-12-29T01:21:43;12.98;;;2.67;;
23866;SDS011;12114;53.404;-1.502;2023-12-29T01:24:30;15.90;;;2.67;;
23866;SDS011;12114;53.404;-1.502;2023-12-29T01:27:14;16.42;;;2.70;;
23866;SDS011;12114;53.404;-1.502;2023-12-29T01:29:58;14.02;;;1.98;;
23866;SDS011;12114;53.404;-1.502;2023-12-29T01:32:43;15.02;;;2.10;;
23866;SDS011;12114;53.404;-1.502;2023-12-29T01:35:27;17.02;;;2.53;;
23866;SDS011;12114;53.404;-1.502;2023-12-29T01:38:15;18.50;;;2.55;;
23866;SDS011;12114;53.404;-1.502;2023-12-29T01:40:58;15.68;;;2.10;;
23866;SDS011;12114;53.404;-1.502;2023-12-29T01:46:45;12.35;;;2.08;;
23866;SDS011;12114;53.404;-1.502;2023-12-29T01:49:31;17.23;;;2.67;;
23866;SDS011;12114;53.404;-1.502;2023-12-29T01:52:20;12.25;;;1.92;;
23866;SDS011;12114;53.404;-1.502;2023-12-29T01:55:04;16.00;;;2.50;;
23866;SDS011;12114;53.404;-1.502;2023-12-29T01:57:50;13.82;;;2.53;;
23866;SDS011;12114;53.404;-1.502;2023-12-29T02:00:35;17.42;;;2.83;;
23866;SDS011;12114;53.404;-1.502;2023-12-29T02:03:19;10.57;;;2.67;;
23866;SDS011;12114;53.404;-1.502;2023-12-29T02:06:03;17.52;;;2.60;;
23866;SDS011;12114;53.404;-1.502;2023-12-29T02:08:50;10.68;;;2.13;;
23866;SDS011;12114;53.404;-1.502;2023-12-29T02:11:34;12.20;;;2.42;;
23866;SDS011;12114;53.404;-1.502;2023-12-29T02:14:18;12.32;;;2.50;;
23866;SDS011;12114;53.404;-1.502;2023-12-29T02:17:10;13.25;;;2.20;;
23866;SDS011;12114;53.404;-1.502;2023-12-29T02:20:01;15.95;;;3.05;;
23866;SDS011;12114;53.404;-1.502;2023-12-29T02:22:46;15.85;;;2.28;;
23866;SDS011;12114;53.404;-1.502;2023-12-29T02:25:30;11.35;;;1.92;;
23866;SDS011;12114;53.404;-1.502;2023-12-29T02:28:20;17.05;;;2.75;;
23866;SDS011;12114;53.404;-1.502;2023-12-29T02:31:09;10.05;;;2.20;;
23866;SDS011;12114;53.404;-1.502;2023-12-29T02:33:58;14.98;;;2.47;;
23866;SDS011;12114;53.404;-1.502;2023-12-29T02:36:46;12.80;;;2.10;;
23866;SDS011;12114;53.404;-1.502;2023-12-29T02:39:32;10.90;;;1.85;;
23866;SDS011;12114;53.404;-1.502;2023-12-29T02:42:16;10.20;;;2.92;;
23866;SDS011;12114;53.404;-1.502;2023-12-29T02:45:00;15.05;;;2.00;;
23866;SDS011;12114;53.404;-1.502;2023-12-29T02:47:44;17.13;;;2.80;;
23866;SDS011;12114;53.404;-1.502;2023-12-29T02:50:29;18.60;;;2.77;;
23866;SDS011;12114;53.404;-1.502;2023-12-29T02:53:13;16.20;;;2.33;;
23866;SDS011;12114;53.404;-1.502;2023-12-29T02:55:57;16.63;;;2.53;;
23866;SDS011;12114;53.404;-1.502;2023-12-29T02:58:41;14.75;;;2.08;;
23866;SDS011;12114;53.404;-1.502;2023-12-29T03:01:25;17.45;;;3.35;;
23866;SDS011;12114;53.404;-1.502;2023-12-29T03:04:12;18.10;;;2.78;;
23866;SDS011;12114;53.404;-1.502;2023-12-29T03:06:56;12.07;;;2.13;;
23866;SDS011;12114;53.404;-1.502;2023-12-29T03:09:40;12.57;;;2.47;;
23866;SDS011;12114;53.404;-1.502;2023-12-29T03:12:24;15.02;;;2.05;;
23866;SDS011;12114;53.404;-1.502;2023-12-29T03:15:08;15.50;;;2.50;;
23866;SDS011;12114;53.404;-1.502;2023-12-29T03:17:52;14.15;;;2.00;;
23866;SDS011;12114;53.404;-1.502;2023-12-29T03:20:36;11.38;;;1.95;;
23866;SDS011;12114;53.404;-1.502;2023-12-29T03:23:20;13.18;;;2.30;;
23866;SDS011;12114;53.404;-1.502;2023-12-29T03:26:04;14.00;;;2.60;;
23866;SDS011;12114;53.404;-1.502;2023-12-29T03:28:48;12.93;;;2.15;;
23866;SDS011;12114;53.404;-1.502;2023-12-29T03:31:32;11.85;;;2.08;;
23866;SDS011;12114;53.404;-1.502;2023-12-29T03:34:16;13.32;;;1.98;;
23866;SDS011;12114;53.404;-1.502;2023-12-29T03:37:00;16.88;;;2.42;;
23866;SDS011;12114;53.404;-1.502;2023-12-29T03:39:44;13.50;;;1.80;;
23866;SDS011;12114;53.404;-1.502;2023-12-29T03:42:28;14.88;;;2.30;;
23866;SDS011;12114;53.404;-1.502;2023-12-29T03:45:12;17.13;;;2.85;;
23866;SDS011;12114;53.404;-1.502;2023-12-29T03:47:56;15.25;;;2.05;;
23866;SDS011;12114;53.404;-1.502;2023-12-29T03:50:40;16.30;;;2.63;;
23866;SDS011;12114;53.404;-1.502;2023-12-29T03:53:24;11.95;;;2.35;;
23866;SDS011;12114;53.404;-1.502;2023-12-29T03:56:08;15.30;;;2.63;;
23866;SDS011;12114;53.404;-1.502;2023-12-29T03:58:56;16.98;;;2.67;;
23866;SDS011;12114;53.404;-1.502;2023-12-29T04:01:41;13.98;;;2.92;;
23866;SDS011;12114;53.404;-1.502;2023-12-29T04:04:25;17.17;;;2.67;;
23866;SDS011;12114;53.404;-1.502;2023-12-29T04:07:09;14.30;;;2.35;;
23866;SDS011;12114;53.404;-1.502;2023-12-29T04:09:53;30.77;;;6.72;;
23866;SDS011;12114;53.404;-1.502;2023-12-29T04:12:37;20.13;;;2.88;;
23866;SDS011;12114;53.404;-1.502;2023-12-29T04:15:21;19.35;;;2.80;;
23866;SDS011;12114;53.404;-1.502;2023-12-29T04:18:05;14.07;;;2.50;;
23866;SDS011;12114;53.404;-1.502;2023-12-29T04:20:49;15.13;;;2.42;;
23866;SDS011;12114;53.404;-1.502;2023-12-29T04:23:36;20.20;;;2.80;;
23866;SDS011;12114;53.404;-1.502;2023-12-29T04:26:20;16.25;;;2.58;;
23866;SDS011;12114;53.404;-1.502;2023-12-29T04:29:04;10.50;;;1.80;;
23866;SDS011;12114;53.404;-1.502;2023-12-29T04:31:47;15.07;;;2.60;;
23866;SDS011;12114;53.404;-1.502;2023-12-29T04:34:31;16.25;;;2.55;;
23866;SDS011;12114;53.404;-1.502;2023-12-29T04:37:15;14.70;;;2.38;;
23866;SDS011;12114;53.404;-1.502;2023-12-29T04:39:59;13.13;;;2.47;;
23866;SDS011;12114;53.404;-1.502;2023-12-29T04:42:44;15.85;;;3.33;;
23866;SDS011;12114;53.404;-1.502;2023-12-29T04:45:28;16.15;;;2.85;;
23866;SDS011;12114;53.404;-1.502;2023-12-29T04:48:13;19.00;;;2.45;;
23866;SDS011;12114;53.404;-1.502;2023-12-29T04:50:57;15.88;;;2.78;;
23866;SDS011;12114;53.404;-1.502;2023-12-29T04:53:41;26.20;;;3.38;;
23866;SDS011;12114;53.404;-1.502;2023-12-29T04:56:25;20.20;;;3.30;;
23866;SDS011;12114;53.404;-1.502;2023-12-29T04:59:09;14.48;;;2.58;;
23866;SDS011;12114;53.404;-1.502;2023-12-29T05:01:53;17.65;;;3.00;;
23866;SDS011;12114;53.404;-1.502;2023-12-29T05:04:37;14.35;;;2.55;;
23866;SDS011;12114;53.404;-1.502;2023-12-29T05:07:23;16.10;;;2.78;;
23866;SDS011;12114;53.404;-1.502;2023-12-29T05:10:07;20.60;;;2.90;;
23866;SDS011;12114;53.404;-1.502;2023-12-29T05:12:52;19.02;;;2.72;;
23866;SDS011;12114;53.404;-1.502;2023-12-29T05:15:36;22.40;;;2.90;;
23866;SDS011;12114;53.404;-1.502;2023-12-29T05:18:20;17.00;;;3.65;;
23866;SDS011;12114;53.404;-1.502;2023-12-29T05:21:04;21.42;;;2.60;;
23866;SDS011;12114;53.404;-1.502;2023-12-29T05:23:48;17.48;;;2.47;;
23866;SDS011;12114;53.404;-1.502;2023-12-29T05:26:32;15.88;;;2.83;;
23866;SDS011;12114;53.404;-1.502;2023-12-29T05:29:16;18.23;;;3.03;;
23866;SDS011;12114;53.404;-1.502;2023-12-29T05:32:00;16.15;;;2.60;;
23866;SDS011;12114;53.404;-1.502;2023-12-29T05:34:46;18.88;;;3.20;;
23866;SDS011;12114;53.404;-1.502;2023-12-29T05:37:30;17.58;;;3.33;;
23866;SDS011;12114;53.404;-1.502;2023-12-29T05:40:14;22.30;;;3.53;;
23866;SDS011;12114;53.404;-1.502;2023-12-29T05:42:58;16.08;;;2.53;;
23866;SDS011;12114;53.404;-1.502;2023-12-29T05:45:42;18.15;;;2.95;;
23866;SDS011;12114;53.404;-1.502;2023-12-29T05:48:27;17.65;;;3.05;;
23866;SDS011;12114;53.404;-1.502;2023-12-29T05:51:14;23.55;;;3.67;;
23866;SDS011;12114;53.404;-1.502;2023-12-29T05:53:58;25.45;;;3.67;;
23866;SDS011;12114;53.404;-1.502;2023-12-29T05:56:42;21.67;;;3.03;;
23866;SDS011;12114;53.404;-1.502;2023-12-29T05:59:27;16.77;;;2.97;;
23866;SDS011;12114;53.404;-1.502;2023-12-29T06:02:11;19.50;;;3.40;;
23866;SDS011;12114;53.404;-1.502;2023-12-29T06:04:55;15.68;;;2.97;;
23866;SDS011;12114;53.404;-1.502;2023-12-29T06:07:39;22.58;;;3.40;;
23866;SDS011;12114;53.404;-1.502;2023-12-29T06:10:23;17.27;;;2.72;;
23866;SDS011;12114;53.404;-1.502;2023-12-29T06:13:08;19.63;;;3.30;;
23866;SDS011;12114;53.404;-1.502;2023-12-29T06:15:52;19.95;;;2.88;;
23866;SDS011;12114;53.404;-1.502;2023-12-29T06:18:36;20.17;;;3.25;;
23866;SDS011;12114;53.404;-1.502;2023-12-29T06:21:22;17.48;;;2.95;;
23866;SDS011;12114;53.404;-1.502;2023-12-29T06:24:06;21.50;;;2.50;;
23866;SDS011;12114;53.404;-1.502;2023-12-29T06:26:53;14.02;;;2.70;;
23866;SDS011;12114;53.404;-1.502;2023-12-29T06:29:37;15.55;;;2.63;;
23866;SDS011;12114;53.404;-1.502;2023-12-29T06:32:21;13.52;;;1.73;;
23866;SDS011;12114;53.404;-1.502;2023-12-29T06:35:05;16.42;;;2.80;;
23866;SDS011;12114;53.404;-1.502;2023-12-29T06:37:50;15.63;;;2.88;;
23866;SDS011;12114;53.404;-1.502;2023-12-29T06:40:34;13.20;;;2.80;;
23866;SDS011;12114;53.404;-1.502;2023-12-29T06:43:18;17.90;;;2.67;;
23866;SDS011;12114;53.404;-1.502;2023-12-29T06:46:02;17.27;;;2.70;;
23866;SDS011;12114;53.404;-1.502;2023-12-29T06:48:46;17.27;;;3.10;;
23866;SDS011;12114;53.404;-1.502;2023-12-29T06:51:32;19.17;;;3.20;;
23866;SDS011;12114;53.404;-1.502;2023-12-29T06:54:16;15.73;;;3.08;;
23866;SDS011;12114;53.404;-1.502;2023-12-29T06:57:00;16.15;;;2.60;;
23866;SDS011;12114;53.404;-1.502;2023-12-29T06:59:44;19.05;;;3.92;;
23866;SDS011;12114;53.404;-1.502;2023-12-29T07:02:28;21.20;;;3.40;;
23866;SDS011;12114;53.404;-1.502;2023-12-29T07:05:12;16.00;;;2.50;;
23866;SDS011;12114;53.404;-1.502;2023-12-29T07:07:56;15.07;;;2.20;;
23866;SDS011;12114;53.404;-1.502;2023-12-29T07:10:40;29.63;;;3.10;;
23866;SDS011;12114;53.404;-1.502;2023-12-29T07:13:24;16.23;;;3.67;;
23866;SDS011;12114;53.404;-1.502;2023-12-29T07:16:08;13.25;;;2.63;;
23866;SDS011;12114;53.404;-1.502;2023-12-29T07:18:52;20.08;;;3.55;;
23866;SDS011;12114;53.404;-1.502;2023-12-29T07:21:35;18.70;;;2.88;;
23866;SDS011;12114;53.404;-1.502;2023-12-29T07:24:19;16.65;;;3.15;;
23866;SDS011;12114;53.404;-1.502;2023-12-29T07:27:03;11.90;;;2.28;;
23866;SDS011;12114;53.404;-1.502;2023-12-29T07:29:48;14.57;;;2.80;;
23866;SDS011;12114;53.404;-1.502;2023-12-29T07:32:32;19.25;;;2.90;;
23866;SDS011;12114;53.404;-1.502;2023-12-29T07:35:16;20.83;;;2.88;;
23866;SDS011;12114;53.404;-1.502;2023-12-29T07:38:01;14.88;;;2.63;;
23866;SDS011;12114;53.404;-1.502;2023-12-29T07:40:45;22.27;;;2.75;;
23866;SDS011;12114;53.404;-1.502;2023-12-29T07:43:31;17.92;;;2.63;;
23866;SDS011;12114;53.404;-1.502;2023-12-29T07:46:25;20.98;;;3.55;;
23866;SDS011;12114;53.404;-1.502;2023-12-29T07:49:13;21.30;;;3.33;;
23866;SDS011;12114;53.404;-1.502;2023-12-29T07:51:57;13.38;;;2.72;;
23866;SDS011;12114;53.404;-1.502;2023-12-29T07:54:43;18.85;;;3.08;;
23866;SDS011;12114;53.404;-1.502;2023-12-29T07:57:26;17.48;;;3.40;;
23866;SDS011;12114;53.404;-1.502;2023-12-29T08:00:10;20.88;;;2.90;;
23866;SDS011;12114;53.404;-1.502;2023-12-29T08:02:55;17.00;;;3.23;;
23866;SDS011;12114;53.404;-1.502;2023-12-29T08:05:39;27.40;;;2.92;;
23866;SDS011;12114;53.404;-1.502;2023-12-29T08:08:24;15.07;;;2.63;;
23866;SDS011;12114;53.404;-1.502;2023-12-29T08:11:14;19.95;;;2.85;;
23866;SDS011;12114;53.404;-1.502;2023-12-29T08:14:02;20.75;;;2.90;;
23866;SDS011;12114;53.404;-1.502;2023-12-29T08:16:46;15.45;;;2.60;;
23866;SDS011;12114;53.404;-1.502;2023-12-29T08:19:30;21.40;;;2.67;;
23866;SDS011;12114;53.404;-1.502;2023-12-29T08:22:14;32.88;;;3.55;;
23866;SDS011;12114;53.404;-1.502;2023-12-29T08:24:58;18.77;;;3.13;;
23866;SDS011;12114;53.404;-1.502;2023-12-29T08:27:42;14.18;;;2.05;;
23866;SDS011;12114;53.404;-1.502;2023-12-29T08:30:27;18.45;;;2.88;;
23866;SDS011;12114;53.404;-1.502;2023-12-29T08:33:11;16.10;;;2.50;;
23866;SDS011;12114;53.404;-1.502;2023-12-29T08:35:56;19.85;;;3.60;;
23866;SDS011;12114;53.404;-1.502;2023-12-29T08:38:47;16.65;;;3.10;;
23866;SDS011;12114;53.404;-1.502;2023-12-29T08:41:31;18.63;;;2.85;;
23866;SDS011;12114;53.404;-1.502;2023-12-29T08:44:15;18.92;;;2.83;;
23866;SDS011;12114;53.404;-1.502;2023-12-29T08:47:00;15.52;;;2.50;;
23866;SDS011;12114;53.404;-1.502;2023-12-29T08:49:44;19.08;;;3.33;;
23866;SDS011;12114;53.404;-1.502;2023-12-29T08:52:27;16.00;;;3.30;;
23866;SDS011;12114;53.404;-1.502;2023-12-29T08:55:16;19.05;;;2.72;;
23866;SDS011;12114;53.404;-1.502;2023-12-29T08:58:01;24.20;;;2.83;;
23866;SDS011;12114;53.404;-1.502;2023-12-29T09:00:45;16.92;;;2.53;;
23866;SDS011;12114;53.404;-1.502;2023-12-29T09:03:29;19.05;;;2.72;;
23866;SDS011;12114;53.404;-1.502;2023-12-29T09:06:13;14.93;;;2.33;;
23866;SDS011;12114;53.404;-1.502;2023-12-29T09:08:58;19.23;;;2.50;;
23866;SDS011;12114;53.404;-1.502;2023-12-29T09:11:45;21.40;;;3.40;;
23866;SDS011;12114;53.404;-1.502;2023-12-29T09:14:29;19.30;;;2.60;;
23866;SDS011;12114;53.404;-1.502;2023-12-29T09:17:16;20.55;;;3.70;;
23866;SDS011;12114;53.404;-1.502;2023-12-29T09:20:00;15.68;;;2.70;;
23866;SDS011;12114;53.404;-1.502;2023-12-29T09:22:44;16.40;;;3.10;;
23866;SDS011;12114;53.404;-1.502;2023-12-29T09:25:28;18.38;;;3.15;;
23866;SDS011;12114;53.404;-1.502;2023-12-29T09:28:12;18.05;;;3.17;;
23866;SDS011;12114;53.404;-1.502;2023-12-29T09:30:56;11.18;;;1.83;;
23866;SDS011;12114;53.404;-1.502;2023-12-29T09:33:40;17.65;;;2.50;;
23866;SDS011;12114;53.404;-1.502;2023-12-29T09:36:24;15.43;;;2.42;;
23866;SDS011;12114;53.404;-1.502;2023-12-29T09:39:08;16.95;;;2.53;;
23866;SDS011;12114;53.404;-1.502;2023-12-29T09:41:52;13.10;;;2.35;;
23866;SDS011;12114;53.404;-1.502;2023-12-29T09:44:41;15.68;;;2.50;;
23866;SDS011;12114;53.404;-1.502;2023-12-29T09:47:27;22.05;;;3.40;;
23866;SDS011;12114;53.404;-1.502;2023-12-29T09:50:14;15.80;;;2.30;;
23866;SDS011;12114;53.404;-1.502;2023-12-29T09:52:59;18.80;;;3.38;;
23866;SDS011;12114;53.404;-1.502;2023-12-29T09:55:45;15.45;;;2.25;;
23866;SDS011;12114;53.404;-1.502;2023-12-29T09:58:31;18.67;;;2.63;;
23866;SDS011;12114;53.404;-1.502;2023-12-29T10:01:18;18.05;;;2.88;;
23866;SDS011;12114;53.404;-1.502;2023-12-29T10:04:02;15.47;;;2.93;;
23866;SDS011;12114;53.404;-1.502;2023-12-29T10:06:47;16.98;;;2.63;;
23866;SDS011;12114;53.404;-1.502;2023-12-29T10:09:34;17.02;;;1.95;;
23866;SDS011;12114;53.404;-1.502;2023-12-29T10:12:20;19.00;;;2.80;;
23866;SDS011;12114;53.404;-1.502;2023-12-29T10:15:23;15.10;;;2.97;;
23866;SDS011;12114;53.404;-1.502;2023-12-29T10:21:24;16.25;;;2.75;;
23866;SDS011;12114;53.404;-1.502;2023-12-29T10:24:15;14.23;;;2.38;;
23866;SDS011;12114;53.404;-1.502;2023-12-29T10:27:02;14.00;;;2.42;;
23866;SDS011;12114;53.404;-1.502;2023-12-29T10:29:46;14.07;;;2.58;;
23866;SDS011;12114;53.404;-1.502;2023-12-29T10:32:31;19.30;;;2.55;;
23866;SDS011;12114;53.404;-1.502;2023-12-29T10:35:15;13.68;;;1.98;;
23866;SDS011;12114;53.404;-1.502;2023-12-29T10:38:08;14.07;;;2.50;;
23866;SDS011;12114;53.404;-1.502;2023-12-29T10:41:15;20.88;;;2.63;;
23866;SDS011;12114;53.404;-1.502;2023-12-29T10:44:00;14.85;;;1.77;;
23866;SDS011;12114;53.404;-1.502;2023-12-29T10:46:52;14.07;;;2.28;;
23866;SDS011;12114;53.404;-1.502;2023-12-29T10:49:36;18.10;;;2.60;;
23866;SDS011;12114;53.404;-1.502;2023-12-29T10:52:21;15.02;;;1.88;;
23866;SDS011;12114;53.404;-1.502;2023-12-29T10:55:10;18.13;;;3.30;;
23866;SDS011;12114;53.404;-1.502;2023-12-29T10:57:59;19.75;;;3.22;;
23866;SDS011;12114;53.404;-1.502;2023-12-29T11:00:44;17.40;;;2.80;;
23866;SDS011;12114;53.404;-1.502;2023-12-29T11:03:28;16.00;;;2.45;;
23866;SDS011;12114;53.404;-1.502;2023-12-29T11:06:12;19.77;;;2.50;;
23866;SDS011;12114;53.404;-1.502;2023-12-29T11:08:56;20.05;;;3.13;;
23866;SDS011;12114;53.404;-1.502;2023-12-29T11:11:41;20.88;;;4.13;;
23866;SDS011;12114;53.404;-1.502;2023-12-29T11:14:26;14.93;;;2.47;;
23866;SDS011;12114;53.404;-1.502;2023-12-29T11:17:14;15.52;;;2.35;;
23866;SDS011;12114;53.404;-1.502;2023-12-29T11:20:00;14.10;;;2.28;;
23866;SDS011;12114;53.404;-1.502;2023-12-29T11:22:45;17.47;;;3.27;;
23866;SDS011;12114;53.404;-1.502;2023-12-29T11:25:30;18.65;;;3.97;;
23866;SDS011;12114;53.404;-1.502;2023-12-29T11:28:14;16.77;;;2.85;;
23866;SDS011;12114;53.404;-1.502;2023-12-29T11:30:58;13.52;;;2.50;;
23866;SDS011;12114;53.404;-1.502;2023-12-29T11:33:43;12.13;;;2.72;;
23866;SDS011;12114;53.404;-1.502;2023-12-29T11:36:33;16.52;;;2.50;;
23866;SDS011;12114;53.404;-1.502;2023-12-29T11:42:21;15.38;;;2.28;;
23866;SDS011;12114;53.404;-1.502;2023-12-29T11:45:24;11.77;;;2.30;;
23866;SDS011;12114;53.404;-1.502;2023-12-29T11:48:11;14.10;;;2.55;;
23866;SDS011;12114;53.404;-1.502;2023-12-29T11:50:58;16.10;;;2.17;;
23866;SDS011;12114;53.404;-1.502;2023-12-29T11:53:42;20.52;;;2.05;;
23866;SDS011;12114;53.404;-1.502;2023-12-29T11:56:30;12.35;;;3.28;;
23866;SDS011;12114;53.404;-1.502;2023-12-29T12:02:01;13.83;;;2.00;;
23866;SDS011;12114;53.404;-1.502;2023-12-29T12:04:45;15.93;;;2.67;;
23866;SDS011;12114;53.404;-1.502;2023-12-29T12:13:03;21.40;;;2.38;;
23866;SDS011;12114;53.404;-1.502;2023-12-29T12:15:47;21.70;;;2.20;;
23866;SDS011;12114;53.404;-1.502;2023-12-29T12:18:31;18.02;;;2.92;;
23866;SDS011;12114;53.404;-1.502;2023-12-29T12:21:16;11.38;;;2.72;;
23866;SDS011;12114;53.404;-1.502;2023-12-29T12:24:05;19.23;;;2.40;;
23866;SDS011;12114;53.404;-1.502;2023-12-29T12:26:49;15.98;;;2.90;;
23866;SDS011;12114;53.404;-1.502;2023-12-29T12:29:33;14.02;;;2.42;;
23866;SDS011;12114;53.404;-1.502;2023-12-29T12:32:18;9.25;;;1.90;;
23866;SDS011;12114;53.404;-1.502;2023-12-29T12:35:02;15.13;;;2.70;;
23866;SDS011;12114;53.404;-1.502;2023-12-29T12:37:47;16.77;;;2.42;;
23866;SDS011;12114;53.404;-1.502;2023-12-29T12:40:34;13.63;;;2.35;;
23866;SDS011;12114;53.404;-1.502;2023-12-29T12:43:18;11.68;;;2.20;;
23866;SDS011;12114;53.404;-1.502;2023-12-29T12:46:02;18.98;;;2.50;;
23866;SDS011;12114;53.404;-1.502;2023-12-29T12:48:48;15.20;;;3.13;;
23866;SDS011;12114;53.404;-1.502;2023-12-29T12:51:33;16.05;;;2.53;;
23866;SDS011;12114;53.404;-1.502;2023-12-29T12:54:18;11.43;;;1.90;;
23866;SDS011;12114;53.404;-1.502;2023-12-29T12:57:03;13.65;;;2.53;;
23866;SDS011;12114;53.404;-1.502;2023-12-29T12:59:48;10.25;;;2.33;;
23866;SDS011;12114;53.404;-1.502;2023-12-29T13:02:34;12.40;;;1.90;;
23866;SDS011;12114;53.404;-1.502;2023-12-29T13:05:19;11.60;;;2.10;;
23866;SDS011;12114;53.404;-1.502;2023-12-29T13:08:05;9.13;;;1.87;;
23866;SDS011;12114;53.404;-1.502;2023-12-29T13:10:49;13.77;;;2.38;;
23866;SDS011;12114;53.404;-1.502;2023-12-29T13:13:37;7.80;;;1.45;;
23866;SDS011;12114;53.404;-1.502;2023-12-29T13:16:33;11.63;;;2.15;;
23866;SDS011;12114;53.404;-1.502;2023-12-29T13:19:20;15.10;;;2.00;;
23866;SDS011;12114;53.404;-1.502;2023-12-29T13:22:08;14.93;;;2.22;;
23866;SDS011;12114;53.404;-1.502;2023-12-29T13:24:58;11.27;;;2.17;;
23866;SDS011;12114;53.404;-1.502;2023-12-29T13:27:43;14.90;;;2.35;;
23866;SDS011;12114;53.404;-1.502;2023-12-29T13:30:27;17.85;;;2.28;;
23866;SDS011;12114;53.404;-1.502;2023-12-29T13:33:12;13.85;;;2.45;;
23866;SDS011;12114;53.404;-1.502;2023-12-29T13:36:23;10.90;;;2.17;;
23866;SDS011;12114;53.404;-1.502;2023-12-29T13:39:42;13.90;;;2.03;;
23866;SDS011;12114;53.404;-1.502;2023-12-29T13:42:19;14.27;;;2.42;;
23866;SDS011;12114;53.404;-1.502;2023-12-29T13:45:08;14.50;;;2.38;;
23866;SDS011;12114;53.404;-1.502;2023-12-29T13:47:53;13.45;;;2.42;;
23866;SDS011;12114;53.404;-1.502;2023-12-29T13:50:39;15.85;;;2.70;;
23866;SDS011;12114;53.404;-1.502;2023-12-29T13:53:26;13.43;;;2.10;;
23866;SDS011;12114;53.404;-1.502;2023-12-29T13:56:10;15.02;;;1.98;;
23866;SDS011;12114;53.404;-1.502;2023-12-29T13:58:55;15.00;;;2.28;;
23866;SDS011;12114;53.404;-1.502;2023-12-29T14:01:39;17.25;;;2.90;;
23866;SDS011;12114;53.404;-1.502;2023-12-29T14:04:23;15.65;;;2.42;;
23866;SDS011;12114;53.404;-1.502;2023-12-29T14:07:07;17.30;;;2.33;;
23866;SDS011;12114;53.404;-1.502;2023-12-29T14:09:53;16.42;;;2.28;;
23866;SDS011;12114;53.404;-1.502;2023-12-29T14:12:39;14.00;;;2.13;;
23866;SDS011;12114;53.404;-1.502;2023-12-29T14:15:23;17.45;;;3.22;;
23866;SDS011;12114;53.404;-1.502;2023-12-29T14:21:22;15.05;;;2.40;;
23866;SDS011;12114;53.404;-1.502;2023-12-29T14:24:13;15.35;;;3.00;;
23866;SDS011;12114;53.404;-1.502;2023-12-29T14:26:58;17.60;;;3.03;;
23866;SDS011;12114;53.404;-1.502;2023-12-29T14:29:42;13.95;;;2.40;;
23866;SDS011;12114;53.404;-1.502;2023-12-29T14:32:27;9.63;;;1.67;;
23866;SDS011;12114;53.404;-1.502;2023-12-29T14:35:13;17.90;;;2.45;;
23866;SDS011;12114;53.404;-1.502;2023-12-29T14:37:57;12.73;;;2.50;;
23866;SDS011;12114;53.404;-1.502;2023-12-29T14:40:41;13.57;;;1.98;;
23866;SDS011;12114;53.404;-1.502;2023-12-29T14:43:28;13.30;;;2.22;;
23866;SDS011;12114;53.404;-1.502;2023-12-29T14:46:12;9.65;;;2.30;;
23866;SDS011;12114;53.404;-1.502;2023-12-29T14:48:56;4.55;;;1.17;;
23866;SDS011;12114;53.404;-1.502;2023-12-29T14:51:42;2.75;;;0.95;;
23866;SDS011;12114;53.404;-1.502;2023-12-29T14:54:26;4.60;;;0.93;;
23866;SDS011;12114;53.404;-1.502;2023-12-29T14:57:10;5.57;;;1.10;;
23866;SDS011;12114;53.404;-1.502;2023-12-29T14:59:54;3.95;;;1.15;;
23866;SDS011;12114;53.404;-1.502;2023-12-29T15:02:38;4.15;;;0.70;;
23866;SDS011;12114;53.404;-1.502;2023-12-29T15:05:23;4.13;;;1.13;;
23866;SDS011;12114;53.404;-1.502;2023-12-29T15:08:07;4.53;;;1.00;;
23866;SDS011;12114;53.404;-1.502;2023-12-29T15:10:51;3.95;;;1.00;;
23866;SDS011;12114;53.404;-1.502;2023-12-29T15:13:35;5.72;;;1.40;;
23866;SDS011;12114;53.404;-1.502;2023-12-29T15:16:21;4.97;;;1.60;;
23866;SDS011;12114;53.404;-1.502;2023-12-29T15:19:05;4.32;;;0.90;;
23866;SDS011;12114;53.404;-1.502;2023-12-29T15:21:51;3.15;;;0.90;;
23866;SDS011;12114;53.404;-1.502;2023-12-29T15:24:37;2.20;;;0.93;;
23866;SDS011;12114;53.404;-1.502;2023-12-29T15:27:21;2.72;;;1.20;;
23866;SDS011;12114;53.404;-1.502;2023-12-29T15:30:12;4.25;;;0.73;;
23866;SDS011;12114;53.404;-1.502;2023-12-29T15:32:56;1.88;;;0.65;;
23866;SDS011;12114;53.404;-1.502;2023-12-29T15:35:41;2.50;;;0.70;;
23866;SDS011;12114;53.404;-1.502;2023-12-29T15:38:25;2.40;;;0.80;;
23866;SDS011;12114;53.404;-1.502;2023-12-29T15:41:09;1.92;;;0.80;;
23866;SDS011;12114;53.404;-1.502;2023-12-29T15:43:53;2.83;;;0.85;;
23866;SDS011;12114;53.404;-1.502;2023-12-29T15:46:37;1.60;;;0.75;;
23866;SDS011;12114;53.404;-1.502;2023-12-29T15:49:22;1.50;;;0.52;;
23866;SDS011;12114;53.404;-1.502;2023-12-29T15:52:06;1.08;;;0.60;;
23866;SDS011;12114;53.404;-1.502;2023-12-29T15:54:49;1.50;;;0.70;;
23866;SDS011;12114;53.404;-1.502;2023-12-29T15:57:34;2.25;;;0.60;;
23866;SDS011;12114;53.404;-1.502;2023-12-29T16:00:18;0.70;;;0.40;;
23866;SDS011;12114;53.404;-1.502;2023-12-29T16:03:02;2.50;;;0.70;;
23866;SDS011;12114;53.404;-1.502;2023-12-29T16:05:47;1.70;;;0.57;;
23866;SDS011;12114;53.404;-1.502;2023-12-29T16:08:31;1.83;;;0.52;;
23866;SDS011;12114;53.404;-1.502;2023-12-29T16:11:20;0.98;;;0.63;;
23866;SDS011;12114;53.404;-1.502;2023-12-29T16:14:05;2.90;;;0.93;;
23866;SDS011;12114;53.404;-1.502;2023-12-29T16:16:49;2.50;;;1.15;;
23866;SDS011;12114;53.404;-1.502;2023-12-29T16:19:33;4.18;;;1.80;;
23866;SDS011;12114;53.404;-1.502;2023-12-29T16:22:17;2.10;;;1.10;;
23866;SDS011;12114;53.404;-1.502;2023-12-29T16:25:04;4.75;;;1.70;;
23866;SDS011;12114;53.404;-1.502;2023-12-29T16:27:49;3.13;;;1.73;;
23866;SDS011;12114;53.404;-1.502;2023-12-29T16:30:35;3.35;;;2.08;;